Time;durP1;ratioP1;P1;durP2;ratioP2;P2;SDS_P1;SDS_P2;PMS_P1;PMS_P2;Temp;Humidity;BMP_temperature;BMP_pressure;BME280_temperature;BME280_humidity;BME280_pressure;Samples;Min_cycle;Max_cycle;Signal;HPM_P1;HPM_P2
2022/05/27 00:01:22;;;;;;;10.27;2.00;;;15.30;73.90;;;;;;5093539;28;20040;-85
2022/05/27 00:03:50;;;;;;;11.00;2.45;;;15.30;73.90;;;;;;5090258;28;20052;-84
2022/05/27 00:06:17;;;;;;;10.77;2.10;;;15.30;73.90;;;;;;5091506;28;20501;-84
2022/05/27 00:08:44;;;;;;;10.50;2.40;;;15.30;73.90;;;;;;5091554;28;20406;-84
2022/05/27 00:11:12;;;;;;;8.70;1.95;;;15.30;73.90;;;;;;5091613;28;20630;-84
2022/05/27 00:13:39;;;;;;;10.45;1.90;;;15.30;73.90;;;;;;5092802;28;20052;-85
2022/05/27 00:16:07;;;;;;;12.00;2.13;;;15.30;73.90;;;;;;5092421;28;20052;-85
2022/05/27 00:18:34;;;;;;;13.23;2.40;;;15.30;73.90;;;;;;5091109;28;20052;-86
2022/05/27 00:21:02;;;;;;;12.43;2.50;;;15.30;73.90;;;;;;5090735;28;20468;-85
2022/05/27 00:23:30;;;;;;;9.30;2.40;;;15.30;73.90;;;;;;5091484;28;20047;-85
2022/05/27 00:25:57;;;;;;;11.27;2.25;;;15.30;73.80;;;;;;5091303;28;20044;-85
2022/05/27 00:28:24;;;;;;;11.20;2.60;;;15.30;73.90;;;;;;5093286;28;20078;-85
2022/05/27 00:30:52;;;;;;;10.20;2.15;;;15.30;73.80;;;;;;5090980;28;20040;-84
2022/05/27 00:33:20;;;;;;;9.60;2.28;;;15.20;73.80;;;;;;5091028;28;20048;-84
2022/05/27 00:35:48;;;;;;;10.40;2.30;;;15.30;73.80;;;;;;5090925;28;20102;-85
2022/05/27 00:38:15;;;;;;;11.85;2.13;;;15.20;73.80;;;;;;5091169;28;20044;-85
2022/05/27 00:40:52;;;;;;;12.32;2.42;;;15.20;73.80;;;;;;5091945;28;20536;-85
2022/05/27 00:43:20;;;;;;;9.35;2.20;;;15.20;73.80;;;;;;5091715;28;20044;-85
2022/05/27 00:45:57;;;;;;;13.02;2.40;;;15.30;73.80;;;;;;5090648;28;20063;-85
2022/05/27 00:48:26;;;;;;;11.15;2.25;;;15.20;73.80;;;;;;5089750;28;20505;-85
2022/05/27 00:50:55;;;;;;;10.55;2.28;;;15.20;73.80;;;;;;5090916;28;20105;-84
2022/05/27 00:53:35;;;;;;;10.32;1.95;;;15.20;73.80;;;;;;5090963;28;20402;-85
2022/05/27 00:56:04;;;;;;;8.32;2.13;;;15.20;73.80;;;;;;5075005;28;20048;-84
2022/05/27 00:58:37;;;;;;;8.20;2.10;;;15.20;73.80;;;;;;5087175;28;20467;-84
2022/05/27 01:01:05;;;;;;;9.63;2.65;;;15.10;73.80;;;;;;5091744;28;20457;-85
2022/05/27 01:03:32;;;;;;;8.02;2.25;;;15.20;73.80;;;;;;5090629;28;20395;-84
2022/05/27 01:05:59;;;;;;;12.98;2.40;;;15.20;73.80;;;;;;5090523;28;20093;-84
2022/05/27 01:08:29;;;;;;;10.23;2.50;;;15.20;73.80;;;;;;5090552;28;20043;-85
2022/05/27 01:11:04;;;;;;;13.10;2.80;;;15.10;73.80;;;;;;5090605;28;20544;-85
2022/05/27 01:13:40;;;;;;;10.30;2.15;;;15.10;73.80;;;;;;5088510;28;20105;-84
2022/05/27 01:16:34;;;;;;;13.98;2.38;;;15.20;73.80;;;;;;5091791;28;20051;-85
2022/05/27 01:22:08;;;;;;;10.68;2.10;;;15.20;73.90;;;;;;5088987;28;19924;-84
2022/05/27 01:25:08;;;;;;;10.70;2.47;;;15.10;73.90;;;;;;5090274;28;20081;-85
2022/05/27 01:28:12;;;;;;;8.68;2.55;;;15.10;73.90;;;;;;5089883;28;20463;-85
2022/05/27 01:31:05;;;;;;;10.35;2.42;;;15.10;74.00;;;;;;5089978;28;20399;-85
2022/05/27 01:33:42;;;;;;;10.63;2.90;;;15.10;74.00;;;;;;5090096;28;20463;-85
2022/05/27 01:36:27;;;;;;;13.70;2.47;;;15.10;74.10;;;;;;5090202;28;20044;-84
2022/05/27 01:39:04;;;;;;;7.50;1.92;;;15.10;74.10;;;;;;5090101;28;20056;-85
2022/05/27 01:41:42;;;;;;;11.90;2.42;;;15.10;74.10;;;;;;5089958;28;20505;-85
2022/05/27 01:44:36;;;;;;;11.13;2.50;;;15.00;74.20;;;;;;5075553;28;20044;-84
2022/05/27 01:47:06;;;;;;;8.82;2.60;;;15.10;74.20;;;;;;5074514;28;20041;-84
2022/05/27 01:49:44;;;;;;;9.35;2.30;;;15.10;74.20;;;;;;5091871;28;20078;-85
2022/05/27 01:52:26;;;;;;;10.00;2.60;;;15.10;74.20;;;;;;5089945;28;20467;-84
2022/05/27 01:55:27;;;;;;;19.60;2.90;;;15.10;74.30;;;;;;5089997;28;20041;-84
2022/05/27 01:58:04;;;;;;;10.00;2.97;;;15.00;74.30;;;;;;5086217;28;20048;-85
2022/05/27 02:00:33;;;;;;;12.10;2.75;;;15.00;74.30;;;;;;5088588;28;20078;-85
2022/05/27 02:03:14;;;;;;;12.73;2.97;;;15.10;74.40;;;;;;5089868;28;20040;-84
2022/05/27 02:06:02;;;;;;;15.88;3.22;;;15.00;74.40;;;;;;5089924;28;20048;-85
2022/05/27 02:08:51;;;;;;;12.38;3.00;;;15.10;74.50;;;;;;5089966;28;20056;-84
2022/05/27 02:11:21;;;;;;;13.65;2.70;;;15.00;74.50;;;;;;5076117;28;20116;-84
2022/05/27 02:14:07;;;;;;;7.35;2.20;;;15.10;74.50;;;;;;5089930;28;20044;-84
2022/05/27 02:16:47;;;;;;;11.70;2.67;;;15.00;74.60;;;;;;5087919;28;20109;-84
2022/05/27 02:19:25;;;;;;;12.95;2.83;;;15.00;74.60;;;;;;5089886;28;20131;-84
2022/05/27 02:21:59;;;;;;;11.70;2.75;;;15.10;74.70;;;;;;5089731;28;20061;-85
2022/05/27 02:24:37;;;;;;;14.02;3.33;;;15.10;74.70;;;;;;5089799;28;20448;-84
2022/05/27 02:27:12;;;;;;;15.05;3.30;;;15.10;74.80;;;;;;5089289;28;20502;-84
2022/05/27 02:29:43;;;;;;;18.65;3.67;;;15.10;74.80;;;;;;5089757;28;20052;-84
2022/05/27 02:32:17;;;;;;;10.98;3.30;;;15.10;74.90;;;;;;5089799;28;20090;-84
2022/05/27 02:37:44;;;;;;;10.57;2.88;;;15.10;75.00;;;;;;5087766;28;19974;-84
2022/05/27 02:40:24;;;;;;;13.68;3.17;;;15.00;75.00;;;;;;5089208;28;20106;-84
2022/05/27 02:43:23;;;;;;;15.00;3.60;;;15.10;75.10;;;;;;5091156;28;20059;-85
2022/05/27 02:46:28;;;;;;;14.43;3.03;;;15.10;75.20;;;;;;5092929;28;20066;-85
2022/05/27 02:49:01;;;;;;;16.88;3.20;;;15.00;75.30;;;;;;5085063;28;20075;-84
2022/05/27 02:52:03;;;;;;;12.95;3.50;;;15.10;75.40;;;;;;5093177;28;20098;-84
2022/05/27 02:55:11;;;;;;;16.38;3.72;;;15.00;75.50;;;;;;5092712;28;20094;-84
2022/05/27 02:57:44;;;;;;;16.85;3.83;;;15.00;75.60;;;;;;5092801;28;20463;-84
2022/05/27 03:00:16;;;;;;;16.50;3.95;;;15.00;75.70;;;;;;5093076;28;20101;-84
2022/05/27 03:02:43;;;;;;;19.45;4.25;;;15.10;75.80;;;;;;5092994;28;20052;-84
2022/05/27 03:05:12;;;;;;;21.77;4.45;;;15.00;75.80;;;;;;5092831;28;20075;-84
2022/05/27 03:07:56;;;;;;;16.88;4.25;;;15.00;75.90;;;;;;5094160;28;20047;-84
2022/05/27 03:10:59;;;;;;;20.48;4.20;;;15.00;76.00;;;;;;5093927;28;20471;-84
2022/05/27 03:13:41;;;;;;;16.15;4.13;;;15.00;76.10;;;;;;5094730;28;20055;-84
2022/05/27 03:16:26;;;;;;;20.92;4.38;;;15.00;76.10;;;;;;5094102;28;20060;-85
2022/05/27 03:19:06;;;;;;;18.92;4.25;;;15.10;76.20;;;;;;5091179;28;20460;-86
2022/05/27 03:21:48;;;;;;;19.10;4.05;;;15.00;76.30;;;;;;5092524;28;20448;-85
2022/05/27 03:24:24;;;;;;;14.55;3.90;;;15.00;76.40;;;;;;5092215;28;20048;-85
2022/05/27 03:26:54;;;;;;;18.15;4.85;;;15.00;76.40;;;;;;5092433;28;20097;-85
2022/05/27 03:29:45;;;;;;;21.02;4.65;;;15.10;76.50;;;;;;5092518;28;20052;-84
2022/05/27 03:32:46;;;;;;;21.55;4.07;;;15.00;76.50;;;;;;5078035;28;20097;-85
2022/05/27 03:35:45;;;;;;;20.65;4.30;;;15.00;76.60;;;;;;5078062;28;20048;-85
2022/05/27 03:38:25;;;;;;;19.27;4.45;;;15.10;76.70;;;;;;5077561;28;20047;-84
2022/05/27 03:40:58;;;;;;;17.27;4.00;;;15.10;76.70;;;;;;5092352;28;20442;-85
2022/05/27 03:43:27;;;;;;;18.52;4.03;;;15.10;76.80;;;;;;5094384;28;20109;-84
2022/05/27 03:45:57;;;;;;;18.65;4.78;;;15.00;76.80;;;;;;5091813;28;20079;-85
2022/05/27 03:48:27;;;;;;;19.40;4.63;;;15.10;76.90;;;;;;5092104;28;20040;-85
2022/05/27 03:50:59;;;;;;;18.00;4.80;;;15.10;76.90;;;;;;5092095;28;20398;-85
2022/05/27 03:54:03;;;;;;;20.98;4.50;;;15.00;77.00;;;;;;5091821;28;20093;-85
2022/05/27 03:56:13;;;;;;;18.05;4.35;;;15.10;77.00;;;;;;5076019;28;20040;-85
2022/05/27 03:58:40;;;;;;;19.38;4.90;;;15.00;77.10;;;;;;5092877;28;20051;-85
2022/05/27 04:01:07;;;;;;;17.23;4.50;;;15.00;77.10;;;;;;5093240;28;20391;-84
2022/05/27 04:03:34;;;;;;;16.27;4.20;;;15.10;77.20;;;;;;5091733;28;20048;-85
2022/05/27 04:06:01;;;;;;;17.65;4.40;;;15.00;77.20;;;;;;5091622;28;20096;-84
2022/05/27 04:08:27;;;;;;;21.00;4.70;;;15.00;77.30;;;;;;5091357;28;20052;-84
2022/05/27 04:10:54;;;;;;;21.17;4.82;;;15.00;77.30;;;;;;5091782;28;20068;-84
2022/05/27 04:13:21;;;;;;;23.25;4.47;;;15.10;77.30;;;;;;5093712;28;20048;-84
2022/05/27 04:15:48;;;;;;;23.98;5.53;;;15.00;77.40;;;;;;5091405;28;20090;-85
2022/05/27 04:18:15;;;;;;;16.20;4.32;;;15.00;77.40;;;;;;5091405;28;20044;-85
2022/05/27 04:20:42;;;;;;;21.48;4.38;;;15.10;77.40;;;;;;5091082;28;20048;-84
2022/05/27 04:23:11;;;;;;;17.80;4.57;;;15.00;77.50;;;;;;5091459;28;20510;-84
2022/05/27 04:25:38;;;;;;;15.82;3.92;;;15.00;77.50;;;;;;5092830;28;20059;-85
2022/05/27 04:28:05;;;;;;;18.63;4.57;;;15.10;77.60;;;;;;5092399;28;20052;-84
2022/05/27 04:30:32;;;;;;;17.90;4.15;;;15.10;77.60;;;;;;5091202;28;20052;-84
2022/05/27 04:32:59;;;;;;;26.85;4.53;;;15.00;77.60;;;;;;5091169;28;20044;-85
2022/05/27 04:35:26;;;;;;;20.45;3.90;;;15.10;77.70;;;;;;5089652;28;20574;-85
2022/05/27 04:37:53;;;;;;;19.42;4.45;;;15.00;77.70;;;;;;5091193;28;20483;-85
2022/05/27 04:40:20;;;;;;;19.00;4.07;;;15.00;77.70;;;;;;5093132;28;20491;-84
2022/05/27 04:42:47;;;;;;;19.15;5.07;;;15.10;77.80;;;;;;5091132;28;20105;-84
2022/05/27 04:45:14;;;;;;;19.02;4.47;;;15.10;77.80;;;;;;5090629;28;20044;-85
2022/05/27 04:47:42;;;;;;;19.35;4.85;;;15.00;77.80;;;;;;5090901;28;20130;-84
2022/05/27 04:50:10;;;;;;;17.25;4.38;;;15.00;77.90;;;;;;5090635;28;20509;-84
2022/05/27 04:52:38;;;;;;;14.85;4.55;;;15.00;77.90;;;;;;5092301;28;20055;-85
2022/05/27 04:55:08;;;;;;;19.27;4.65;;;15.10;77.90;;;;;;5089583;28;20097;-85
2022/05/27 04:57:43;;;;;;;24.88;4.90;;;15.10;77.90;;;;;;5090816;28;20094;-84
2022/05/27 05:00:15;;;;;;;18.33;4.93;;;15.00;78.00;;;;;;5090643;28;20043;-84
2022/05/27 05:02:43;;;;;;;20.52;4.55;;;15.00;78.00;;;;;;5090759;28;20063;-84
2022/05/27 05:05:17;;;;;;;17.98;4.70;;;15.00;78.00;;;;;;5090001;28;20044;-84
2022/05/27 05:07:47;;;;;;;18.75;4.28;;;15.10;78.10;;;;;;5091240;28;20101;-84
2022/05/27 05:10:18;;;;;;;19.52;4.75;;;15.10;78.10;;;;;;5090680;28;20052;-85
2022/05/27 05:12:44;;;;;;;17.42;3.90;;;15.10;78.10;;;;;;5090598;28;20055;-85
2022/05/27 05:15:13;;;;;;;14.30;4.03;;;15.10;78.20;;;;;;5088804;28;20471;-85
2022/05/27 05:17:40;;;;;;;17.98;4.93;;;15.10;78.20;;;;;;5090476;28;20044;-85
2022/05/27 05:20:08;;;;;;;18.52;4.53;;;15.10;78.20;;;;;;5090091;28;20055;-84
2022/05/27 05:22:36;;;;;;;16.95;4.50;;;15.00;78.20;;;;;;5091762;28;20044;-84
2022/05/27 05:25:03;;;;;;;16.30;4.18;;;15.10;78.30;;;;;;5091128;28;20460;-84
2022/05/27 05:27:30;;;;;;;15.55;4.50;;;15.10;78.30;;;;;;5090344;28;20047;-85
2022/05/27 05:29:58;;;;;;;21.45;4.80;;;15.10;78.30;;;;;;5090286;28;20048;-84
2022/05/27 05:32:24;;;;;;;23.00;5.20;;;15.10;78.30;;;;;;5090389;28;20483;-84
2022/05/27 05:34:53;;;;;;;14.75;4.57;;;15.00;78.30;;;;;;5089892;28;20052;-84
2022/05/27 05:37:21;;;;;;;22.30;4.93;;;15.10;78.40;;;;;;5092321;28;20048;-84
2022/05/27 05:39:48;;;;;;;17.33;4.57;;;15.10;78.40;;;;;;5089793;28;20052;-85
2022/05/27 05:42:15;;;;;;;18.23;4.80;;;15.10;78.40;;;;;;5090264;28;20040;-84
2022/05/27 05:44:41;;;;;;;17.50;4.40;;;15.10;78.40;;;;;;5088362;28;20090;-85
2022/05/27 05:47:08;;;;;;;21.83;4.80;;;15.10;78.50;;;;;;5090142;28;20093;-84
2022/05/27 05:49:35;;;;;;;14.75;4.45;;;15.10;78.50;;;;;;5091247;28;20048;-84
2022/05/27 05:52:03;;;;;;;21.80;4.80;;;15.10;78.60;;;;;;5090850;28;20505;-84
2022/05/27 05:54:31;;;;;;;17.90;4.97;;;15.10;78.60;;;;;;5088687;28;20468;-84
2022/05/27 05:57:02;;;;;;;23.48;6.07;;;15.10;78.60;;;;;;5090095;28;20090;-84
2022/05/27 05:59:31;;;;;;;21.27;4.70;;;15.20;78.70;;;;;;5090109;28;20052;-83
2022/05/27 06:01:59;;;;;;;21.67;4.80;;;15.20;78.70;;;;;;5090059;28;20570;-84
2022/05/27 06:04:27;;;;;;;20.42;4.70;;;15.20;78.70;;;;;;5091793;28;20051;-84
2022/05/27 06:06:55;;;;;;;18.75;5.13;;;15.20;78.80;;;;;;5090065;28;20054;-84
2022/05/27 06:09:25;;;;;;;23.15;5.60;;;15.20;78.80;;;;;;5089805;28;20468;-84
2022/05/27 06:11:56;;;;;;;21.25;6.05;;;15.20;78.90;;;;;;5089985;28;20090;-84
2022/05/27 06:14:24;;;;;;;18.92;5.53;;;15.20;78.90;;;;;;5089959;28;20513;-84
2022/05/27 06:16:50;;;;;;;18.80;5.43;;;15.20;78.90;;;;;;5089577;28;20094;-84
2022/05/27 06:19:17;;;;;;;20.42;4.72;;;15.20;78.90;;;;;;5095512;28;20059;-84
2022/05/27 06:21:44;;;;;;;16.75;5.32;;;15.20;78.90;;;;;;5121886;27;20044;-84
2022/05/27 06:24:12;;;;;;;19.55;4.72;;;15.20;78.90;;;;;;5093744;28;20040;-85
2022/05/27 06:26:39;;;;;;;19.00;5.32;;;15.20;79.00;;;;;;5093573;28;20043;-84
2022/05/27 06:34:37;;;;;;;23.83;6.13;;;15.20;79.00;;;;;;5090373;28;20056;-84
2022/05/27 06:37:18;;;;;;;24.17;5.60;;;15.30;79.10;;;;;;5092372;28;20044;-84
2022/05/27 06:39:48;;;;;;;18.10;5.40;;;15.30;79.10;;;;;;5081131;28;20056;-84
2022/05/27 06:42:17;;;;;;;18.70;5.47;;;15.20;79.10;;;;;;5079507;28;20076;-84
2022/05/27 06:45:06;;;;;;;17.50;5.40;;;15.30;79.20;;;;;;5078920;28;20139;-85
2022/05/27 06:47:34;;;;;;;17.73;4.93;;;15.30;79.30;;;;;;5078927;28;20055;-84
2022/05/27 06:50:01;;;;;;;14.75;4.70;;;15.30;79.30;;;;;;5075264;28;20434;-84
2022/05/27 06:52:28;;;;;;;18.48;4.80;;;15.30;79.40;;;;;;5079127;28;20055;-84
2022/05/27 06:54:55;;;;;;;13.10;4.55;;;15.30;79.50;;;;;;5079180;28;20509;-84
2022/05/27 06:57:22;;;;;;;17.05;4.88;;;15.30;79.50;;;;;;5079092;28;20102;-84
2022/05/27 06:59:49;;;;;;;17.15;4.72;;;15.30;79.60;;;;;;5079092;28;20048;-83
2022/05/27 07:02:16;;;;;;;12.80;4.85;;;15.30;79.60;;;;;;5075098;28;20040;-85
2022/05/27 07:04:43;;;;;;;18.75;4.72;;;15.40;79.60;;;;;;5076867;28;20056;-84
2022/05/27 07:07:11;;;;;;;16.77;5.28;;;15.30;79.70;;;;;;5078914;28;20090;-84
2022/05/27 07:09:38;;;;;;;19.35;5.05;;;15.40;79.70;;;;;;5087606;28;20052;-84
2022/05/27 07:12:08;;;;;;;18.48;4.45;;;15.40;79.70;;;;;;5085901;28;20102;-84
2022/05/27 07:14:36;;;;;;;15.98;4.80;;;15.40;79.70;;;;;;5079049;28;20052;-84
2022/05/27 07:17:04;;;;;;;12.25;4.30;;;15.40;79.70;;;;;;5074415;28;20094;-84
2022/05/27 07:19:38;;;;;;;15.40;4.65;;;15.40;79.70;;;;;;5076914;28;20058;-84
2022/05/27 07:22:11;;;;;;;14.35;4.32;;;15.40;79.70;;;;;;5088661;28;20449;-84
2022/05/27 07:24:39;;;;;;;12.02;3.92;;;15.40;79.70;;;;;;5081445;28;20052;-84
2022/05/27 07:27:06;;;;;;;13.90;4.53;;;15.40;79.70;;;;;;5078475;28;20041;-84
2022/05/27 07:29:34;;;;;;;16.90;4.28;;;15.50;79.80;;;;;;5074969;28;20056;-84
2022/05/27 07:32:02;;;;;;;20.85;4.63;;;15.40;79.80;;;;;;5072752;28;20514;-84
2022/05/27 07:34:29;;;;;;;18.40;4.45;;;15.50;79.80;;;;;;5073941;28;20502;-85
2022/05/27 07:36:56;;;;;;;16.98;4.20;;;15.50;79.80;;;;;;5078525;28;20045;-84
2022/05/27 07:39:23;;;;;;;15.90;4.93;;;15.50;79.80;;;;;;5078066;28;20766;-84
2022/05/27 07:41:50;;;;;;;17.45;4.88;;;15.50;79.70;;;;;;5077502;28;20111;-84
2022/05/27 07:44:17;;;;;;;14.52;4.40;;;15.50;79.70;;;;;;5089731;28;20050;-84
2022/05/27 07:46:43;;;;;;;13.95;4.40;;;15.60;79.70;;;;;;5075581;28;20522;-84
2022/05/27 07:49:10;;;;;;;16.50;4.30;;;15.60;79.70;;;;;;5088990;28;20460;-83
2022/05/27 07:51:58;;;;;;;17.75;4.93;;;15.60;79.70;;;;;;5078560;28;20073;-84
2022/05/27 07:54:25;;;;;;;17.27;5.15;;;15.60;79.70;;;;;;5078138;28;20070;-84
2022/05/27 07:56:52;;;;;;;11.93;4.28;;;15.60;79.70;;;;;;5078047;28;20490;-84
2022/05/27 07:59:18;;;;;;;16.13;4.65;;;15.60;79.70;;;;;;5075278;28;20044;-84
2022/05/27 08:01:46;;;;;;;18.23;4.72;;;15.60;79.80;;;;;;5075331;28;20052;-86
2022/05/27 08:04:13;;;;;;;13.85;4.60;;;15.60;79.80;;;;;;5073302;28;20421;-85
2022/05/27 08:06:41;;;;;;;11.63;3.97;;;15.70;79.80;;;;;;5071890;28;20044;-85
2022/05/27 08:09:13;;;;;;;15.75;4.25;;;15.70;79.80;;;;;;5077722;28;20052;-85
2022/05/27 08:11:40;;;;;;;12.98;3.75;;;15.80;79.90;;;;;;5077802;28;20048;-85
2022/05/27 08:14:08;;;;;;;18.73;4.80;;;15.70;79.90;;;;;;5073766;28;20101;-84
2022/05/27 08:16:37;;;;;;;19.00;4.07;;;15.80;79.90;;;;;;5072648;28;20049;-85
2022/05/27 08:19:05;;;;;;;11.90;3.70;;;15.90;79.90;;;;;;5087474;28;20051;-85
2022/05/27 08:21:36;;;;;;;12.93;3.92;;;15.90;79.90;;;;;;5080944;28;20048;-85
2022/05/27 08:24:03;;;;;;;18.98;4.50;;;15.90;79.80;;;;;;5077491;28;20095;-85
2022/05/27 08:26:30;;;;;;;16.67;4.45;;;15.90;79.80;;;;;;5076752;28;20048;-85
2022/05/27 08:28:57;;;;;;;15.70;4.18;;;15.90;79.70;;;;;;5072381;28;20102;-85
2022/05/27 08:31:24;;;;;;;12.88;4.25;;;15.90;79.70;;;;;;5076804;28;20052;-84
2022/05/27 08:39:22;;;;;;;15.60;4.22;;;16.00;79.70;;;;;;5076917;28;20423;-84
2022/05/27 08:42:15;;;;;;;11.70;3.47;;;16.00;79.70;;;;;;5075037;28;20055;-85
2022/05/27 08:44:57;;;;;;;15.38;4.05;;;16.10;79.70;;;;;;5079040;28;20060;-84
2022/05/27 08:47:42;;;;;;;12.65;3.38;;;16.00;79.70;;;;;;5075618;28;20080;-84
2022/05/27 08:50:26;;;;;;;14.82;3.80;;;16.10;79.60;;;;;;5073053;28;20048;-84
2022/05/27 08:53:16;;;;;;;12.95;3.45;;;16.10;79.70;;;;;;5073436;28;20074;-85
2022/05/27 09:01:36;;;;;;;12.23;3.35;;;16.20;79.70;;;;;;5088167;28;20048;-84
2022/05/27 09:04:03;;;;;;;13.93;3.30;;;16.30;79.70;;;;;;5077257;28;20049;-85
2022/05/27 09:06:44;;;;;;;8.98;3.22;;;16.40;79.70;;;;;;5081462;28;20143;-84
2022/05/27 09:09:20;;;;;;;7.88;2.58;;;16.40;79.70;;;;;;5083356;28;20048;-85
2022/05/27 09:12:26;;;;;;;9.25;3.15;;;16.50;79.60;;;;;;5076111;28;20456;-85
2022/05/27 09:14:57;;;;;;;7.88;3.05;;;16.60;79.60;;;;;;5071007;28;20051;-85
2022/05/27 09:17:59;;;;;;;9.93;3.70;;;16.70;79.50;;;;;;5075170;28;20047;-85
2022/05/27 09:20:53;;;;;;;8.77;2.80;;;16.90;79.40;;;;;;5072181;28;20052;-85
2022/05/27 09:23:31;;;;;;;10.05;2.83;;;17.00;79.20;;;;;;5074453;28;20106;-85
2022/05/27 09:26:17;;;;;;;10.00;2.72;;;17.10;79.00;;;;;;5072029;28;20110;-86
2022/05/27 09:29:08;;;;;;;9.50;2.60;;;17.20;78.80;;;;;;5086919;28;20101;-85
2022/05/27 09:31:50;;;;;;;6.47;2.28;;;17.30;78.60;;;;;;5087678;28;20051;-85
2022/05/27 09:34:17;;;;;;;9.93;2.50;;;17.40;78.30;;;;;;5076165;28;20399;-86
2022/05/27 09:36:53;;;;;;;8.05;2.60;;;17.60;78.10;;;;;;5083215;28;20056;-86
2022/05/27 09:39:22;;;;;;;11.18;2.92;;;17.70;77.80;;;;;;5081574;28;20052;-86
2022/05/27 09:41:52;;;;;;;7.80;2.10;;;17.80;77.50;;;;;;5076024;28;20047;-86
2022/05/27 09:44:45;;;;;;;10.38;2.70;;;17.90;77.20;;;;;;5073965;28;20051;-84
2022/05/27 09:47:12;;;;;;;7.70;2.40;;;17.90;76.80;;;;;;5073306;28;20044;-84
2022/05/27 09:49:39;;;;;;;8.98;2.63;;;18.10;76.60;;;;;;5074258;28;20457;-85
2022/05/27 09:52:06;;;;;;;7.47;1.80;;;18.20;76.30;;;;;;5078676;28;20106;-85
2022/05/27 09:55:12;;;;;;;8.57;2.22;;;18.20;76.00;;;;;;5079847;28;20102;-84
2022/05/27 09:57:57;;;;;;;7.63;2.22;;;18.40;75.70;;;;;;5049169;28;20049;-84
2022/05/27 10:00:50;;;;;;;9.02;1.92;;;18.50;75.30;;;;;;5051426;28;20525;-85
2022/05/27 10:03:19;;;;;;;5.68;1.65;;;18.60;75.00;;;;;;5051571;28;20503;-85
2022/05/27 10:06:01;;;;;;;5.80;1.88;;;18.70;74.80;;;;;;5051511;28;20103;-85
2022/05/27 10:08:50;;;;;;;9.18;2.10;;;18.80;74.40;;;;;;5051642;28;20124;-85
2022/05/27 10:11:52;;;;;;;6.22;1.70;;;18.90;74.10;;;;;;5051726;28;20049;-84
2022/05/27 10:14:31;;;;;;;8.20;2.10;;;19.00;73.70;;;;;;4973204;28;20148;-84
2022/05/27 10:17:11;;;;;;;8.65;1.55;;;19.10;73.20;;;;;;4973309;28;20098;-85
2022/05/27 10:19:47;;;;;;;6.53;1.80;;;19.30;72.70;;;;;;4973454;28;20078;-85
2022/05/27 10:22:26;;;;;;;7.70;1.88;;;19.40;72.00;;;;;;4972130;28;20101;-85
2022/05/27 10:25:03;;;;;;;5.55;1.45;;;19.40;71.60;;;;;;4972770;28;20051;-85
2022/05/27 10:27:37;;;;;;;9.07;2.22;;;19.50;71.40;;;;;;4973180;28;20432;-84
2022/05/27 10:30:25;;;;;;;5.78;1.73;;;19.70;71.10;;;;;;4973245;28;20054;-85
2022/05/27 10:32:52;;;;;;;8.57;1.63;;;19.80;70.50;;;;;;4985613;28;20053;-85
2022/05/27 10:35:29;;;;;;;7.50;1.45;;;19.80;70.10;;;;;;5012027;28;20092;-84
2022/05/27 10:38:22;;;;;;;4.35;1.55;;;19.90;69.80;;;;;;5011749;28;20054;-84
2022/05/27 10:41:00;;;;;;;4.10;1.50;;;20.10;69.40;;;;;;4993863;28;20049;-85
2022/05/27 10:43:54;;;;;;;4.32;1.35;;;20.10;69.10;;;;;;4996791;28;20121;-85
2022/05/27 10:46:33;;;;;;;5.35;1.48;;;20.20;68.80;;;;;;4997540;28;20516;-84
2022/05/27 10:49:33;;;;;;;8.23;1.73;;;20.30;68.50;;;;;;5003676;28;20046;-84
2022/05/27 10:52:45;;;;;;;6.20;1.40;;;20.40;68.10;;;;;;5075745;28;20048;-84
2022/05/27 10:55:42;;;;;;;4.82;1.23;;;20.50;67.60;;;;;;5032268;28;20513;-84
2022/05/27 11:02:06;;;;;;;5.70;1.40;;;20.60;66.80;;;;;;5031447;28;20049;-84
2022/05/27 11:04:57;;;;;;;5.22;1.70;;;20.70;66.50;;;;;;5011897;28;20124;-84
2022/05/27 11:07:38;;;;;;;6.68;1.42;;;20.70;66.40;;;;;;5031314;28;20054;-85
2022/05/27 11:11:03;;;;;;;5.13;1.33;;;20.80;66.20;;;;;;5031703;28;20503;-84
2022/05/27 11:16:52;;;;;;;6.10;1.60;;;20.80;66.00;;;;;;4950006;28;20168;-84
2022/05/27 11:19:56;;;;;;;5.38;1.55;;;20.80;65.80;;;;;;4949713;29;20059;-84
2022/05/27 11:23:11;;;;;;;4.95;1.40;;;20.80;65.50;;;;;;4952924;29;20053;-84
2022/05/27 11:26:05;;;;;;;8.43;1.50;;;20.80;65.40;;;;;;4953145;28;20051;-84
2022/05/27 11:28:56;;;;;;;4.63;1.30;;;20.90;65.30;;;;;;4950229;29;20051;-84
2022/05/27 11:31:31;;;;;;;4.15;1.42;;;20.90;65.10;;;;;;4968947;28;20061;-84
2022/05/27 11:34:26;;;;;;;5.30;1.35;;;20.90;64.90;;;;;;5026069;28;20080;-84
2022/05/27 11:37:09;;;;;;;4.07;1.35;;;20.90;64.70;;;;;;5025023;28;20049;-85
2022/05/27 11:40:06;;;;;;;7.82;1.80;;;21.00;64.40;;;;;;5026104;28;20143;-84
2022/05/27 11:43:07;;;;;;;4.95;1.38;;;21.10;64.10;;;;;;5022319;28;20054;-85
2022/05/27 11:45:35;;;;;;;4.80;1.30;;;21.10;63.80;;;;;;5083072;28;20052;-84
2022/05/27 11:48:04;;;;;;;4.60;1.20;;;21.20;63.40;;;;;;5079105;28;20098;-84
2022/05/27 11:51:05;;;;;;;6.30;1.30;;;21.20;63.20;;;;;;5089473;28;20047;-84
2022/05/27 11:54:08;;;;;;;6.40;1.42;;;21.30;62.80;;;;;;5077596;28;20056;-84
2022/05/27 11:56:56;;;;;;;4.00;1.35;;;21.40;62.50;;;;;;5077886;28;20044;-85
2022/05/27 11:59:25;;;;;;;4.97;1.45;;;21.40;62.30;;;;;;5076060;28;20049;-84
2022/05/27 12:01:58;;;;;;;7.28;1.85;;;21.40;62.20;;;;;;5074567;28;20052;-84
2022/05/27 12:04:52;;;;;;;3.85;1.08;;;21.50;62.00;;;;;;5077781;28;20568;-85
2022/05/27 12:07:44;;;;;;;4.65;1.20;;;21.60;61.60;;;;;;5077727;28;20056;-85
2022/05/27 12:10:26;;;;;;;4.10;1.40;;;21.60;61.30;;;;;;5088426;28;20490;-84
2022/05/27 12:13:12;;;;;;;3.47;1.20;;;21.70;61.00;;;;;;5078344;28;20106;-85
2022/05/27 12:15:46;;;;;;;4.50;1.17;;;21.80;60.80;;;;;;5076561;28;20582;-84
2022/05/27 12:18:36;;;;;;;5.18;1.20;;;21.80;60.60;;;;;;5076944;28;20041;-85
2022/05/27 12:21:06;;;;;;;5.25;1.23;;;21.90;60.30;;;;;;5077145;28;20094;-85
2022/05/27 12:23:37;;;;;;;3.78;1.20;;;21.90;60.10;;;;;;5077381;28;20052;-85
2022/05/27 12:26:05;;;;;;;2.95;1.00;;;22.00;59.90;;;;;;5088775;28;20044;-85
2022/05/27 12:28:42;;;;;;;7.55;1.33;;;22.10;59.60;;;;;;5087937;28;20044;-85
2022/05/27 12:31:10;;;;;;;3.22;1.00;;;22.10;59.20;;;;;;5087861;28;20058;-85
2022/05/27 12:33:38;;;;;;;4.28;1.20;;;22.10;59.10;;;;;;5080150;28;20502;-85
2022/05/27 12:36:13;;;;;;;4.05;1.20;;;22.20;58.90;;;;;;5078259;28;20048;-85
2022/05/27 12:38:46;;;;;;;5.28;1.08;;;22.20;58.70;;;;;;5087396;28;20094;-85
2022/05/27 12:41:18;;;;;;;5.68;1.40;;;22.20;58.40;;;;;;5088571;28;20059;-84
2022/05/27 12:43:59;;;;;;;4.15;1.23;;;22.20;58.30;;;;;;5074976;28;20049;-85
2022/05/27 12:46:31;;;;;;;5.18;1.35;;;22.30;58.30;;;;;;5076889;28;20465;-85
2022/05/27 12:49:32;;;;;;;3.78;1.13;;;22.30;58.20;;;;;;5076839;28;20502;-84
2022/05/27 12:52:00;;;;;;;4.75;1.17;;;22.40;58.20;;;;;;5071454;28;20051;-85
2022/05/27 12:54:42;;;;;;;3.80;1.27;;;22.30;58.10;;;;;;5075741;28;20044;-85
2022/05/27 13:03:36;;;;;;;3.67;0.95;;;22.40;57.70;;;;;;5076635;28;20055;-85
2022/05/27 13:06:17;;;;;;;8.68;1.25;;;22.40;57.30;;;;;;5077096;28;20044;-85
2022/05/27 13:09:00;;;;;;;3.92;1.23;;;22.40;57.20;;;;;;5076562;28;20056;-85
2022/05/27 13:11:34;;;;;;;5.32;1.25;;;22.40;57.00;;;;;;5075784;28;20040;-85
2022/05/27 13:14:03;;;;;;;3.78;1.10;;;22.50;57.00;;;;;;5072388;28;20085;-85
2022/05/27 13:17:08;;;;;;;4.00;1.20;;;22.50;56.70;;;;;;5072043;28;20049;-85
2022/05/27 13:19:45;;;;;;;7.20;1.20;;;22.60;56.60;;;;;;5087748;28;20117;-85
2022/05/27 13:22:15;;;;;;;3.50;1.20;;;22.60;56.50;;;;;;5076141;28;20052;-84
2022/05/27 13:24:46;;;;;;;3.10;1.10;;;22.60;56.40;;;;;;5076615;28;20051;-85
2022/05/27 13:27:32;;;;;;;2.33;0.93;;;22.60;56.30;;;;;;5076073;28;20045;-85
2022/05/27 13:30:13;;;;;;;3.92;1.02;;;22.70;56.10;;;;;;5076570;28;20040;-85
2022/05/27 13:33:01;;;;;;;3.17;1.05;;;22.70;56.00;;;;;;5076278;28;20048;-84
2022/05/27 13:36:01;;;;;;;3.33;0.95;;;22.70;56.00;;;;;;5075228;28;20040;-85
2022/05/27 13:38:34;;;;;;;4.28;1.05;;;22.80;55.90;;;;;;5067500;28;20051;-85
2022/05/27 13:41:03;;;;;;;4.13;1.13;;;22.80;55.80;;;;;;5073337;28;20056;-85
2022/05/27 13:43:39;;;;;;;3.80;1.13;;;22.90;55.60;;;;;;5071998;28;20053;-84
2022/05/27 13:46:18;;;;;;;3.90;1.30;;;22.90;55.30;;;;;;5086177;28;20056;-85
2022/05/27 13:49:09;;;;;;;3.72;1.40;;;22.90;55.00;;;;;;5086044;28;20044;-84
2022/05/27 13:51:41;;;;;;;4.47;1.40;;;22.90;54.90;;;;;;5076662;28;20052;-85
2022/05/27 13:54:17;;;;;;;4.68;1.48;;;23.00;54.70;;;;;;5077525;28;20048;-84
2022/05/27 13:56:52;;;;;;;4.28;1.15;;;23.00;54.50;;;;;;5086393;28;20112;-85
2022/05/27 13:59:27;;;;;;;4.25;1.20;;;22.90;54.40;;;;;;5074231;28;20041;-85
2022/05/27 14:01:58;;;;;;;4.65;1.15;;;22.90;54.20;;;;;;5072154;28;20057;-84